sensor_id;sensor_type;location;lat;lon;timestamp;noise_LAeq;noise_LA_min;noise_LA_max;noise_LA01;noise_LA95
58197;Laerm;43999;51.660;5.616;2023-07-22T00:00:43;49.50;48.34;50.92;;
58197;Laerm;43999;51.660;5.616;2023-07-22T00:03:10;49.51;48.23;51.10;;
58197;Laerm;43999;51.660;5.616;2023-07-22T00:05:42;49.50;48.15;51.02;;
58197;Laerm;43999;51.660;5.616;2023-07-22T00:08:09;49.50;48.08;51.15;;
58197;Laerm;43999;51.660;5.616;2023-07-22T00:10:42;49.49;48.26;51.13;;
58197;Laerm;43999;51.660;5.616;2023-07-22T00:13:10;49.51;48.29;51.30;;
58197;Laerm;43999;51.660;5.616;2023-07-22T00:15:37;49.51;48.31;51.50;;
58197;Laerm;43999;51.660;5.616;2023-07-22T00:18:05;49.52;48.05;51.26;;
58197;Laerm;43999;51.660;5.616;2023-07-22T00:20:32;49.51;48.28;51.08;;
58197;Laerm;43999;51.660;5.616;2023-07-22T00:23:00;49.52;48.29;51.09;;
58197;Laerm;43999;51.660;5.616;2023-07-22T00:25:27;49.52;47.68;51.13;;
58197;Laerm;43999;51.660;5.616;2023-07-22T00:27:55;49.52;48.25;51.26;;
58197;Laerm;43999;51.660;5.616;2023-07-22T00:30:24;49.52;48.07;51.23;;
58197;Laerm;43999;51.660;5.616;2023-07-22T00:32:53;49.51;48.03;51.23;;
58197;Laerm;43999;51.660;5.616;2023-07-22T00:35:21;49.53;48.16;51.14;;
58197;Laerm;43999;51.660;5.616;2023-07-22T00:37:48;49.52;48.26;51.29;;
58197;Laerm;43999;51.660;5.616;2023-07-22T00:40:16;49.52;48.23;51.47;;
58197;Laerm;43999;51.660;5.616;2023-07-22T00:42:44;49.53;48.15;51.68;;
58197;Laerm;43999;51.660;5.616;2023-07-22T00:45:11;49.52;48.20;51.25;;
58197;Laerm;43999;51.660;5.616;2023-07-22T00:47:39;49.51;48.18;51.53;;
58197;Laerm;43999;51.660;5.616;2023-07-22T00:50:08;49.51;48.21;51.28;;
58197;Laerm;43999;51.660;5.616;2023-07-22T00:52:37;49.51;47.98;51.22;;
58197;Laerm;43999;51.660;5.616;2023-07-22T00:55:06;49.52;48.34;51.38;;
58197;Laerm;43999;51.660;5.616;2023-07-22T00:57:34;49.51;48.07;51.20;;
58197;Laerm;43999;51.660;5.616;2023-07-22T01:00:02;49.52;48.43;51.27;;
58197;Laerm;43999;51.660;5.616;2023-07-22T01:02:30;49.51;48.08;50.96;;
58197;Laerm;43999;51.660;5.616;2023-07-22T01:04:58;49.50;48.25;50.99;;
58197;Laerm;43999;51.660;5.616;2023-07-22T01:07:25;49.52;48.32;51.02;;
58197;Laerm;43999;51.660;5.616;2023-07-22T01:09:57;49.52;48.18;51.22;;
58197;Laerm;43999;51.660;5.616;2023-07-22T01:12:27;49.52;48.25;51.10;;
58197;Laerm;43999;51.660;5.616;2023-07-22T01:14:55;49.51;48.25;51.08;;
58197;Laerm;43999;51.660;5.616;2023-07-22T01:17:23;49.51;48.16;51.33;;
58197;Laerm;43999;51.660;5.616;2023-07-22T01:19:52;49.51;48.15;51.08;;
58197;Laerm;43999;51.660;5.616;2023-07-22T01:22:21;49.52;48.32;51.31;;
58197;Laerm;43999;51.660;5.616;2023-07-22T01:24:50;49.52;48.13;51.08;;
58197;Laerm;43999;51.660;5.616;2023-07-22T01:27:18;49.51;48.31;51.32;;
58197;Laerm;43999;51.660;5.616;2023-07-22T01:29:45;49.51;48.29;51.15;;
58197;Laerm;43999;51.660;5.616;2023-07-22T01:32:13;49.51;48.13;51.08;;
58197;Laerm;43999;51.660;5.616;2023-07-22T01:34:40;49.52;47.81;51.07;;
58197;Laerm;43999;51.660;5.616;2023-07-22T01:37:09;49.51;48.21;51.19;;
58197;Laerm;43999;51.660;5.616;2023-07-22T01:39:37;49.52;48.31;51.30;;
58197;Laerm;43999;51.660;5.616;2023-07-22T01:42:04;49.51;48.02;51.60;;
58197;Laerm;43999;51.660;5.616;2023-07-22T01:44:32;49.50;48.03;51.22;;
58197;Laerm;43999;51.660;5.616;2023-07-22T01:47:02;49.50;48.05;51.60;;
58197;Laerm;43999;51.660;5.616;2023-07-22T01:49:31;49.50;48.23;51.27;;
58197;Laerm;43999;51.660;5.616;2023-07-22T01:51:58;49.50;48.20;51.18;;
58197;Laerm;43999;51.660;5.616;2023-07-22T01:54:26;49.51;48.15;51.16;;
58197;Laerm;43999;51.660;5.616;2023-07-22T01:56:53;49.51;48.20;51.33;;
58197;Laerm;43999;51.660;5.616;2023-07-22T01:59:21;49.51;48.29;51.38;;
58197;Laerm;43999;51.660;5.616;2023-07-22T02:01:49;49.50;48.20;51.36;;
58197;Laerm;43999;51.660;5.616;2023-07-22T02:04:16;49.51;48.21;51.35;;
58197;Laerm;43999;51.660;5.616;2023-07-22T02:06:44;49.50;48.13;51.17;;
58197;Laerm;43999;51.660;5.616;2023-07-22T02:09:12;49.50;48.28;51.27;;
58197;Laerm;43999;51.660;5.616;2023-07-22T02:11:41;49.50;48.18;51.63;;
58197;Laerm;43999;51.660;5.616;2023-07-22T02:14:08;49.49;48.13;51.20;;
58197;Laerm;43999;51.660;5.616;2023-07-22T02:16:37;49.49;48.18;51.39;;
58197;Laerm;43999;51.660;5.616;2023-07-22T02:19:05;49.51;48.26;51.47;;
58197;Laerm;43999;51.660;5.616;2023-07-22T02:21:40;49.50;48.21;51.30;;
58197;Laerm;43999;51.660;5.616;2023-07-22T02:24:09;49.52;48.16;51.29;;
58197;Laerm;43999;51.660;5.616;2023-07-22T02:26:37;49.51;48.36;51.15;;
58197;Laerm;43999;51.660;5.616;2023-07-22T02:29:06;49.50;48.21;51.45;;
58197;Laerm;43999;51.660;5.616;2023-07-22T02:31:34;49.51;48.29;51.43;;
58197;Laerm;43999;51.660;5.616;2023-07-22T02:34:01;49.51;48.16;51.14;;
58197;Laerm;43999;51.660;5.616;2023-07-22T02:36:29;49.50;47.79;51.19;;
58197;Laerm;43999;51.660;5.616;2023-07-22T02:38:56;49.49;48.07;51.66;;
58197;Laerm;43999;51.660;5.616;2023-07-22T02:41:24;49.50;48.00;51.41;;
58197;Laerm;43999;51.660;5.616;2023-07-22T02:43:51;49.50;48.10;51.02;;
58197;Laerm;43999;51.660;5.616;2023-07-22T02:46:19;49.49;48.29;51.57;;
58197;Laerm;43999;51.660;5.616;2023-07-22T02:48:47;49.49;48.23;51.14;;
58197;Laerm;43999;51.660;5.616;2023-07-22T02:51:14;49.49;48.03;51.23;;
58197;Laerm;43999;51.660;5.616;2023-07-22T02:53:41;49.48;48.15;51.17;;
58197;Laerm;43999;51.660;5.616;2023-07-22T02:56:09;49.48;48.16;51.25;;
58197;Laerm;43999;51.660;5.616;2023-07-22T02:58:39;49.48;48.26;51.15;;
58197;Laerm;43999;51.660;5.616;2023-07-22T03:01:06;49.48;48.08;51.08;;
58197;Laerm;43999;51.660;5.616;2023-07-22T03:03:37;49.49;48.28;51.10;;
58197;Laerm;43999;51.660;5.616;2023-07-22T03:06:04;49.48;48.15;51.16;;
58197;Laerm;43999;51.660;5.616;2023-07-22T03:08:32;49.48;48.18;51.21;;
58197;Laerm;43999;51.660;5.616;2023-07-22T03:10:59;49.49;47.63;51.09;;
58197;Laerm;43999;51.660;5.616;2023-07-22T03:13:27;49.47;48.20;51.37;;
58197;Laerm;43999;51.660;5.616;2023-07-22T03:15:58;49.48;48.02;51.22;;
58197;Laerm;43999;51.660;5.616;2023-07-22T03:18:26;49.46;48.31;51.19;;
58197;Laerm;43999;51.660;5.616;2023-07-22T03:20:53;49.47;48.25;50.84;;
58197;Laerm;43999;51.660;5.616;2023-07-22T03:23:21;49.47;48.26;51.30;;
58197;Laerm;43999;51.660;5.616;2023-07-22T03:25:49;49.46;48.23;51.21;;
58197;Laerm;43999;51.660;5.616;2023-07-22T03:28:16;49.46;48.29;50.98;;
58197;Laerm;43999;51.660;5.616;2023-07-22T03:30:44;49.47;48.02;51.30;;
58197;Laerm;43999;51.660;5.616;2023-07-22T03:33:11;49.46;48.20;51.27;;
58197;Laerm;43999;51.660;5.616;2023-07-22T03:35:39;49.46;48.16;51.33;;
58197;Laerm;43999;51.660;5.616;2023-07-22T03:38:08;49.47;48.32;51.04;;
58197;Laerm;43999;51.660;5.616;2023-07-22T03:40:36;49.46;48.26;51.44;;
58197;Laerm;43999;51.660;5.616;2023-07-22T03:43:05;49.45;48.00;51.35;;
58197;Laerm;43999;51.660;5.616;2023-07-22T03:45:32;49.46;48.26;51.19;;
58197;Laerm;43999;51.660;5.616;2023-07-22T03:48:00;49.46;48.13;51.15;;
58197;Laerm;43999;51.660;5.616;2023-07-22T03:50:28;49.46;48.02;51.11;;
58197;Laerm;43999;51.660;5.616;2023-07-22T03:52:56;49.45;48.26;51.21;;
58197;Laerm;43999;51.660;5.616;2023-07-22T03:55:23;49.46;48.15;51.44;;
58197;Laerm;43999;51.660;5.616;2023-07-22T03:57:51;49.45;48.31;51.22;;
58197;Laerm;43999;51.660;5.616;2023-07-22T04:00:20;49.46;48.00;51.40;;
58197;Laerm;43999;51.660;5.616;2023-07-22T04:02:48;49.45;48.18;51.13;;
58197;Laerm;43999;51.660;5.616;2023-07-22T04:05:16;49.47;48.23;51.16;;
58197;Laerm;43999;51.660;5.616;2023-07-22T04:07:45;49.45;48.20;51.15;;
58197;Laerm;43999;51.660;5.616;2023-07-22T04:10:12;49.46;48.26;51.14;;
58197;Laerm;43999;51.660;5.616;2023-07-22T04:12:40;49.46;48.18;51.50;;
58197;Laerm;43999;51.660;5.616;2023-07-22T04:15:09;49.45;48.07;51.12;;
58197;Laerm;43999;51.660;5.616;2023-07-22T04:17:37;49.45;48.28;51.09;;
58197;Laerm;43999;51.660;5.616;2023-07-22T04:20:06;49.46;48.15;51.31;;
58197;Laerm;43999;51.660;5.616;2023-07-22T04:22:35;49.45;48.02;51.10;;
58197;Laerm;43999;51.660;5.616;2023-07-22T04:25:03;49.45;48.20;51.03;;
58197;Laerm;43999;51.660;5.616;2023-07-22T04:27:32;49.46;48.31;51.08;;
58197;Laerm;43999;51.660;5.616;2023-07-22T04:29:59;49.46;48.20;51.11;;
58197;Laerm;43999;51.660;5.616;2023-07-22T04:32:27;49.45;48.26;51.20;;
58197;Laerm;43999;51.660;5.616;2023-07-22T04:34:56;49.46;48.23;51.22;;
58197;Laerm;43999;51.660;5.616;2023-07-22T04:37:23;49.46;48.12;51.00;;
58197;Laerm;43999;51.660;5.616;2023-07-22T04:39:51;49.45;48.31;51.02;;
58197;Laerm;43999;51.660;5.616;2023-07-22T04:42:18;49.44;48.25;51.57;;
58197;Laerm;43999;51.660;5.616;2023-07-22T04:44:46;49.44;48.29;51.09;;
58197;Laerm;43999;51.660;5.616;2023-07-22T04:47:14;49.45;48.12;51.03;;
58197;Laerm;43999;51.660;5.616;2023-07-22T04:49:41;49.46;48.16;51.15;;
58197;Laerm;43999;51.660;5.616;2023-07-22T04:52:09;49.46;48.05;51.03;;
58197;Laerm;43999;51.660;5.616;2023-07-22T04:54:36;49.46;48.13;51.75;;
58197;Laerm;43999;51.660;5.616;2023-07-22T04:57:04;49.45;48.23;51.16;;
58197;Laerm;43999;51.660;5.616;2023-07-22T04:59:32;49.46;48.25;51.27;;
58197;Laerm;43999;51.660;5.616;2023-07-22T05:01:59;49.46;47.98;51.23;;
58197;Laerm;43999;51.660;5.616;2023-07-22T05:04:27;49.47;48.25;51.29;;
58197;Laerm;43999;51.660;5.616;2023-07-22T05:06:54;49.47;48.16;51.58;;
58197;Laerm;43999;51.660;5.616;2023-07-22T05:09:22;49.47;48.08;51.24;;
58197;Laerm;43999;51.660;5.616;2023-07-22T05:11:49;49.47;48.23;50.94;;
58197;Laerm;43999;51.660;5.616;2023-07-22T05:14:17;49.47;48.05;51.27;;
58197;Laerm;43999;51.660;5.616;2023-07-22T05:16:44;49.46;48.16;51.43;;
58197;Laerm;43999;51.660;5.616;2023-07-22T05:19:12;49.48;48.25;51.22;;
58197;Laerm;43999;51.660;5.616;2023-07-22T05:21:39;49.48;48.15;51.28;;
58197;Laerm;43999;51.660;5.616;2023-07-22T05:24:06;49.47;48.10;51.16;;
58197;Laerm;43999;51.660;5.616;2023-07-22T05:26:34;49.49;48.20;51.35;;
58197;Laerm;43999;51.660;5.616;2023-07-22T05:29:01;49.48;48.10;51.13;;
58197;Laerm;43999;51.660;5.616;2023-07-22T05:31:29;49.48;48.25;50.95;;
58197;Laerm;43999;51.660;5.616;2023-07-22T05:33:57;49.47;48.21;51.36;;
58197;Laerm;43999;51.660;5.616;2023-07-22T05:36:24;49.48;48.02;51.08;;
58197;Laerm;43999;51.660;5.616;2023-07-22T05:38:52;49.49;48.16;51.13;;
58197;Laerm;43999;51.660;5.616;2023-07-22T05:41:19;49.50;48.31;51.16;;
58197;Laerm;43999;51.660;5.616;2023-07-22T05:43:47;49.50;48.25;51.11;;
58197;Laerm;43999;51.660;5.616;2023-07-22T05:46:14;49.50;48.10;51.28;;
58197;Laerm;43999;51.660;5.616;2023-07-22T05:48:42;49.49;48.36;51.03;;
58197;Laerm;43999;51.660;5.616;2023-07-22T05:51:10;49.50;48.20;51.13;;
58197;Laerm;43999;51.660;5.616;2023-07-22T05:53:37;49.49;47.98;51.23;;
58197;Laerm;43999;51.660;5.616;2023-07-22T05:56:05;49.50;48.05;51.14;;
58197;Laerm;43999;51.660;5.616;2023-07-22T05:58:32;49.49;48.31;51.27;;
58197;Laerm;43999;51.660;5.616;2023-07-22T06:01:00;49.49;48.31;51.27;;
58197;Laerm;43999;51.660;5.616;2023-07-22T06:03:28;49.52;48.32;50.89;;
58197;Laerm;43999;51.660;5.616;2023-07-22T06:05:55;49.52;48.24;51.36;;
58197;Laerm;43999;51.660;5.616;2023-07-22T06:08:23;49.52;48.15;51.09;;
58197;Laerm;43999;51.660;5.616;2023-07-22T06:10:50;49.53;48.13;51.24;;
58197;Laerm;43999;51.660;5.616;2023-07-22T06:13:18;49.54;48.20;51.20;;
58197;Laerm;43999;51.660;5.616;2023-07-22T06:15:45;49.52;48.37;51.11;;
58197;Laerm;43999;51.660;5.616;2023-07-22T06:18:13;49.52;48.29;51.38;;
58197;Laerm;43999;51.660;5.616;2023-07-22T06:20:40;49.53;48.28;51.43;;
58197;Laerm;43999;51.660;5.616;2023-07-22T06:23:08;49.54;48.32;50.98;;
58197;Laerm;43999;51.660;5.616;2023-07-22T06:25:35;49.53;48.00;51.20;;
58197;Laerm;43999;51.660;5.616;2023-07-22T06:28:04;49.54;48.42;51.57;;
58197;Laerm;43999;51.660;5.616;2023-07-22T06:30:31;49.54;48.42;51.55;;
58197;Laerm;43999;51.660;5.616;2023-07-22T06:32:59;49.55;48.23;51.43;;
58197;Laerm;43999;51.660;5.616;2023-07-22T06:35:27;49.55;48.42;51.22;;
58197;Laerm;43999;51.660;5.616;2023-07-22T06:37:54;49.55;48.18;51.37;;
58197;Laerm;43999;51.660;5.616;2023-07-22T06:40:24;49.54;48.36;51.29;;
58197;Laerm;43999;51.660;5.616;2023-07-22T06:42:52;49.57;48.13;51.39;;
58197;Laerm;43999;51.660;5.616;2023-07-22T06:45:20;49.57;48.40;51.17;;
58197;Laerm;43999;51.660;5.616;2023-07-22T06:47:47;49.57;48.25;51.30;;
58197;Laerm;43999;51.660;5.616;2023-07-22T06:50:15;49.55;48.26;51.43;;
58197;Laerm;43999;51.660;5.616;2023-07-22T06:52:42;49.57;48.29;51.28;;
58197;Laerm;43999;51.660;5.616;2023-07-22T06:55:10;49.55;48.32;51.20;;
58197;Laerm;43999;51.660;5.616;2023-07-22T06:57:39;49.56;48.32;51.05;;
58197;Laerm;43999;51.660;5.616;2023-07-22T07:00:07;49.57;48.28;51.16;;
58197;Laerm;43999;51.660;5.616;2023-07-22T07:02:37;49.58;48.39;51.29;;
58197;Laerm;43999;51.660;5.616;2023-07-22T07:05:05;49.58;48.16;51.22;;
58197;Laerm;43999;51.660;5.616;2023-07-22T07:07:32;49.59;48.23;51.03;;
58197;Laerm;43999;51.660;5.616;2023-07-22T07:10:00;49.58;48.49;51.14;;
58197;Laerm;43999;51.660;5.616;2023-07-22T07:12:27;49.58;48.21;51.25;;
58197;Laerm;43999;51.660;5.616;2023-07-22T07:14:56;49.60;48.29;51.10;;
58197;Laerm;43999;51.660;5.616;2023-07-22T07:17:23;49.58;48.31;51.00;;
58197;Laerm;43999;51.660;5.616;2023-07-22T07:19:51;49.59;48.32;51.51;;
58197;Laerm;43999;51.660;5.616;2023-07-22T07:22:18;49.58;48.51;51.19;;
58197;Laerm;43999;51.660;5.616;2023-07-22T07:24:46;49.58;48.36;51.39;;
58197;Laerm;43999;51.660;5.616;2023-07-22T07:27:13;49.59;48.18;51.39;;
58197;Laerm;43999;51.660;5.616;2023-07-22T07:29:41;49.58;48.15;51.63;;
58197;Laerm;43999;51.660;5.616;2023-07-22T07:32:20;49.59;48.28;51.19;;
58197;Laerm;43999;51.660;5.616;2023-07-22T07:34:48;49.59;48.21;51.14;;
58197;Laerm;43999;51.660;5.616;2023-07-22T07:37:16;49.58;48.25;51.45;;
58197;Laerm;43999;51.660;5.616;2023-07-22T07:39:43;49.59;48.29;51.21;;
58197;Laerm;43999;51.660;5.616;2023-07-22T07:42:11;49.60;48.36;51.20;;
58197;Laerm;43999;51.660;5.616;2023-07-22T07:44:39;49.59;48.21;51.69;;
58197;Laerm;43999;51.660;5.616;2023-07-22T07:47:06;49.60;48.21;51.12;;
58197;Laerm;43999;51.660;5.616;2023-07-22T07:49:34;49.60;48.46;51.27;;
58197;Laerm;43999;51.660;5.616;2023-07-22T07:52:02;49.60;48.12;51.21;;
58197;Laerm;43999;51.660;5.616;2023-07-22T07:54:29;49.60;48.07;51.08;;
58197;Laerm;43999;51.660;5.616;2023-07-22T07:56:59;49.59;48.36;51.29;;
58197;Laerm;43999;51.660;5.616;2023-07-22T07:59:27;49.59;48.40;51.02;;
58197;Laerm;43999;51.660;5.616;2023-07-22T08:01:54;49.61;48.36;51.24;;
58197;Laerm;43999;51.660;5.616;2023-07-22T08:04:22;49.60;48.45;51.21;;
58197;Laerm;43999;51.660;5.616;2023-07-22T08:06:50;49.61;48.39;51.31;;
58197;Laerm;43999;51.660;5.616;2023-07-22T08:09:18;49.61;48.40;51.22;;
58197;Laerm;43999;51.660;5.616;2023-07-22T08:11:47;49.62;48.29;51.67;;
58197;Laerm;43999;51.660;5.616;2023-07-22T08:14:14;49.61;48.28;51.71;;
58197;Laerm;43999;51.660;5.616;2023-07-22T08:16:42;49.63;48.42;51.59;;
58197;Laerm;43999;51.660;5.616;2023-07-22T08:19:09;49.63;48.43;51.55;;
58197;Laerm;43999;51.660;5.616;2023-07-22T08:21:37;49.63;48.29;51.33;;
58197;Laerm;43999;51.660;5.616;2023-07-22T08:24:05;49.63;48.40;51.59;;
58197;Laerm;43999;51.660;5.616;2023-07-22T08:26:33;49.63;48.31;51.52;;
58197;Laerm;43999;51.660;5.616;2023-07-22T08:29:00;49.64;48.25;51.60;;
58197;Laerm;43999;51.660;5.616;2023-07-22T08:31:28;49.63;47.93;51.21;;
58197;Laerm;43999;51.660;5.616;2023-07-22T08:33:55;49.64;48.28;51.14;;
58197;Laerm;43999;51.660;5.616;2023-07-22T08:36:24;49.63;48.48;51.40;;
58197;Laerm;43999;51.660;5.616;2023-07-22T08:38:52;49.63;48.42;51.40;;
58197;Laerm;43999;51.660;5.616;2023-07-22T08:41:20;49.63;48.40;51.14;;
58197;Laerm;43999;51.660;5.616;2023-07-22T08:43:51;49.63;48.29;51.51;;
58197;Laerm;43999;51.660;5.616;2023-07-22T08:46:28;49.65;48.40;51.08;;
58197;Laerm;43999;51.660;5.616;2023-07-22T08:49:00;49.65;48.28;51.69;;
58197;Laerm;43999;51.660;5.616;2023-07-22T08:51:29;49.67;48.54;51.28;;
58197;Laerm;43999;51.660;5.616;2023-07-22T08:54:00;49.67;48.45;51.24;;
58197;Laerm;43999;51.660;5.616;2023-07-22T08:56:38;49.67;48.34;51.04;;
58197;Laerm;43999;51.660;5.616;2023-07-22T08:59:07;49.69;48.40;51.13;;
58197;Laerm;43999;51.660;5.616;2023-07-22T09:01:35;49.67;48.40;51.30;;
58197;Laerm;43999;51.660;5.616;2023-07-22T09:04:04;49.69;48.51;51.41;;
58197;Laerm;43999;51.660;5.616;2023-07-22T09:06:34;49.68;48.51;51.37;;
58197;Laerm;43999;51.660;5.616;2023-07-22T09:09:03;49.67;48.31;51.39;;
58197;Laerm;43999;51.660;5.616;2023-07-22T09:11:35;49.66;48.29;51.36;;
58197;Laerm;43999;51.660;5.616;2023-07-22T09:14:04;49.66;48.36;51.23;;
58197;Laerm;43999;51.660;5.616;2023-07-22T09:16:32;49.66;48.15;51.51;;
58197;Laerm;43999;51.660;5.616;2023-07-22T09:19:03;49.67;48.28;51.08;;
58197;Laerm;43999;51.660;5.616;2023-07-22T09:21:31;49.67;48.42;51.38;;
58197;Laerm;43999;51.660;5.616;2023-07-22T09:24:23;49.67;48.43;51.22;;
58197;Laerm;43999;51.660;5.616;2023-07-22T09:26:51;49.67;48.29;51.04;;
58197;Laerm;43999;51.660;5.616;2023-07-22T09:29:39;49.67;48.26;51.43;;
58197;Laerm;43999;51.660;5.616;2023-07-22T09:32:12;49.67;48.31;51.31;;
58197;Laerm;43999;51.660;5.616;2023-07-22T09:34:54;49.68;48.37;51.17;;
58197;Laerm;43999;51.660;5.616;2023-07-22T09:37:37;49.68;48.42;51.53;;
58197;Laerm;43999;51.660;5.616;2023-07-22T09:40:24;49.69;48.48;51.26;;
58197;Laerm;43999;51.660;5.616;2023-07-22T09:42:55;49.70;48.34;51.28;;
58197;Laerm;43999;51.660;5.616;2023-07-22T09:45:25;49.70;48.45;51.32;;
58197;Laerm;43999;51.660;5.616;2023-07-22T09:47:55;49.71;48.34;51.44;;
58197;Laerm;43999;51.660;5.616;2023-07-22T09:50:25;49.71;48.48;51.47;;
58197;Laerm;43999;51.660;5.616;2023-07-22T09:52:57;49.70;48.43;51.22;;
58197;Laerm;43999;51.660;5.616;2023-07-22T09:55:31;49.70;48.45;51.17;;
58197;Laerm;43999;51.660;5.616;2023-07-22T09:58:04;49.71;48.51;51.40;;
58197;Laerm;43999;51.660;5.616;2023-07-22T10:00:39;49.69;48.36;51.26;;
58197;Laerm;43999;51.660;5.616;2023-07-22T10:03:10;49.70;48.25;51.49;;
58197;Laerm;43999;51.660;5.616;2023-07-22T10:05:43;49.69;48.39;51.13;;
58197;Laerm;43999;51.660;5.616;2023-07-22T10:08:18;49.72;48.34;51.25;;
58197;Laerm;43999;51.660;5.616;2023-07-22T10:10:51;49.70;48.37;51.14;;
58197;Laerm;43999;51.660;5.616;2023-07-22T10:13:21;49.71;48.45;51.38;;
58197;Laerm;43999;51.660;5.616;2023-07-22T10:15:49;49.71;48.42;51.29;;
58197;Laerm;43999;51.660;5.616;2023-07-22T10:18:17;49.71;48.37;51.40;;
58197;Laerm;43999;51.660;5.616;2023-07-22T10:20:48;49.70;48.57;51.27;;
58197;Laerm;43999;51.660;5.616;2023-07-22T10:23:18;49.70;48.43;51.31;;
58197;Laerm;43999;51.660;5.616;2023-07-22T10:25:47;49.71;48.51;51.26;;
58197;Laerm;43999;51.660;5.616;2023-07-22T10:28:16;49.70;48.42;51.47;;
58197;Laerm;43999;51.660;5.616;2023-07-22T10:30:45;49.71;48.23;51.54;;
58197;Laerm;43999;51.660;5.616;2023-07-22T10:33:13;49.69;48.42;51.43;;
58197;Laerm;43999;51.660;5.616;2023-07-22T10:35:46;49.71;48.55;51.21;;
58197;Laerm;43999;51.660;5.616;2023-07-22T10:38:29;49.71;48.34;51.59;;
58197;Laerm;43999;51.660;5.616;2023-07-22T10:40:58;49.72;48.26;51.33;;
58197;Laerm;43999;51.660;5.616;2023-07-22T10:43:34;49.72;48.31;51.33;;
58197;Laerm;43999;51.660;5.616;2023-07-22T10:46:12;49.73;48.49;51.08;;
58197;Laerm;43999;51.660;5.616;2023-07-22T10:48:42;49.71;48.46;51.50;;
58197;Laerm;43999;51.660;5.616;2023-07-22T10:51:15;49.71;48.34;51.63;;
58197;Laerm;43999;51.660;5.616;2023-07-22T10:53:47;49.72;48.32;51.28;;
58197;Laerm;43999;51.660;5.616;2023-07-22T10:56:22;49.73;48.40;51.65;;
58197;Laerm;43999;51.660;5.616;2023-07-22T11:12:17;49.73;48.54;51.51;;
58197;Laerm;43999;51.660;5.616;2023-07-22T11:15:02;49.72;48.18;51.64;;
58197;Laerm;43999;51.660;5.616;2023-07-22T11:17:32;49.71;48.45;51.36;;
58197;Laerm;43999;51.660;5.616;2023-07-22T11:20:02;49.72;48.49;51.27;;
58197;Laerm;43999;51.660;5.616;2023-07-22T11:22:29;49.73;48.54;51.53;;
58197;Laerm;43999;51.660;5.616;2023-07-22T11:24:57;49.74;48.54;51.21;;
58197;Laerm;43999;51.660;5.616;2023-07-22T11:27:26;49.75;48.52;51.39;;
58197;Laerm;43999;51.660;5.616;2023-07-22T11:29:57;49.76;48.40;51.58;;
58197;Laerm;43999;51.660;5.616;2023-07-22T11:32:32;49.74;48.42;51.18;;
58197;Laerm;43999;51.660;5.616;2023-07-22T11:35:01;49.75;48.54;51.61;;
58197;Laerm;43999;51.660;5.616;2023-07-22T11:37:28;49.75;48.42;51.72;;
58197;Laerm;43999;51.660;5.616;2023-07-22T11:40:02;49.75;48.51;51.28;;
58197;Laerm;43999;51.660;5.616;2023-07-22T11:42:35;49.76;48.52;51.27;;
58197;Laerm;43999;51.660;5.616;2023-07-22T11:45:03;49.76;48.48;51.47;;
58197;Laerm;43999;51.660;5.616;2023-07-22T11:47:31;49.77;48.52;51.47;;
58197;Laerm;43999;51.660;5.616;2023-07-22T11:50:00;49.77;48.45;51.49;;
58197;Laerm;43999;51.660;5.616;2023-07-22T11:52:28;49.77;48.52;51.44;;
58197;Laerm;43999;51.660;5.616;2023-07-22T11:55:02;49.76;48.25;51.63;;
58197;Laerm;43999;51.660;5.616;2023-07-22T11:57:33;49.75;48.52;51.16;;
58197;Laerm;43999;51.660;5.616;2023-07-22T12:00:00;49.76;48.29;51.28;;
58197;Laerm;43999;51.660;5.616;2023-07-22T12:02:36;49.77;48.55;51.75;;
58197;Laerm;43999;51.660;5.616;2023-07-22T12:05:05;49.77;48.34;51.41;;
58197;Laerm;43999;51.660;5.616;2023-07-22T12:07:37;49.77;48.58;51.40;;
58197;Laerm;43999;51.660;5.616;2023-07-22T12:10:07;49.77;48.49;51.44;;
58197;Laerm;43999;51.660;5.616;2023-07-22T12:12:45;49.78;48.52;51.29;;
58197;Laerm;43999;51.660;5.616;2023-07-22T12:15:20;49.77;48.20;51.35;;
58197;Laerm;43999;51.660;5.616;2023-07-22T12:18:01;49.76;48.36;51.24;;
58197;Laerm;43999;51.660;5.616;2023-07-22T12:20:33;49.76;48.23;51.46;;
58197;Laerm;43999;51.660;5.616;2023-07-22T12:23:03;49.77;48.48;51.47;;
58197;Laerm;43999;51.660;5.616;2023-07-22T12:25:32;49.76;48.13;51.31;;
58197;Laerm;43999;51.660;5.616;2023-07-22T12:27:59;49.77;48.48;51.58;;
58197;Laerm;43999;51.660;5.616;2023-07-22T12:30:27;49.78;48.52;51.33;;
58197;Laerm;43999;51.660;5.616;2023-07-22T12:32:55;49.76;48.42;51.35;;
58197;Laerm;43999;51.660;5.616;2023-07-22T12:35:23;49.76;48.52;51.80;;
58197;Laerm;43999;51.660;5.616;2023-07-22T12:37:50;49.76;48.58;51.93;;
58197;Laerm;43999;51.660;5.616;2023-07-22T12:40:18;49.76;48.55;51.42;;
58197;Laerm;43999;51.660;5.616;2023-07-22T12:42:46;49.76;48.43;51.23;;
58197;Laerm;43999;51.660;5.616;2023-07-22T12:45:13;49.74;48.52;51.37;;
58197;Laerm;43999;51.660;5.616;2023-07-22T12:47:41;49.75;48.52;51.36;;
58197;Laerm;43999;51.660;5.616;2023-07-22T12:50:09;49.75;48.46;51.39;;
58197;Laerm;43999;51.660;5.616;2023-07-22T12:52:37;49.75;48.42;51.36;;
58197;Laerm;43999;51.660;5.616;2023-07-22T12:55:07;49.77;48.34;51.35;;
58197;Laerm;43999;51.660;5.616;2023-07-22T12:57:34;49.76;48.46;51.30;;
58197;Laerm;43999;51.660;5.616;2023-07-22T13:00:04;49.76;48.36;51.52;;
58197;Laerm;43999;51.660;5.616;2023-07-22T13:02:38;49.76;48.43;51.28;;
58197;Laerm;43999;51.660;5.616;2023-07-22T13:05:06;49.75;48.49;51.72;;
58197;Laerm;43999;51.660;5.616;2023-07-22T13:07:34;49.76;48.40;51.19;;
58197;Laerm;43999;51.660;5.616;2023-07-22T13:10:03;49.78;48.40;51.40;;
58197;Laerm;43999;51.660;5.616;2023-07-22T13:12:34;49.77;48.43;51.30;;
58197;Laerm;43999;51.660;5.616;2023-07-22T13:15:02;49.76;48.51;51.47;;
58197;Laerm;43999;51.660;5.616;2023-07-22T13:17:29;49.77;48.49;51.34;;
58197;Laerm;43999;51.660;5.616;2023-07-22T13:19:57;49.76;48.49;51.32;;
58197;Laerm;43999;51.660;5.616;2023-07-22T13:22:24;49.76;48.39;51.23;;
58197;Laerm;43999;51.660;5.616;2023-07-22T13:24:52;49.76;48.40;51.24;;
58197;Laerm;43999;51.660;5.616;2023-07-22T13:27:19;49.77;48.45;51.17;;
58197;Laerm;43999;51.660;5.616;2023-07-22T13:29:47;49.74;48.34;51.15;;
58197;Laerm;43999;51.660;5.616;2023-07-22T13:32:15;49.76;48.55;51.33;;
58197;Laerm;43999;51.660;5.616;2023-07-22T13:34:42;49.75;48.46;51.53;;
58197;Laerm;43999;51.660;5.616;2023-07-22T13:37:10;49.74;48.48;51.13;;
58197;Laerm;43999;51.660;5.616;2023-07-22T13:39:38;49.75;48.58;51.77;;
58197;Laerm;43999;51.660;5.616;2023-07-22T13:42:06;49.74;48.61;51.72;;
58197;Laerm;43999;51.660;5.616;2023-07-22T13:44:35;49.75;48.37;51.28;;
58197;Laerm;43999;51.660;5.616;2023-07-22T13:47:05;49.75;48.61;51.38;;
58197;Laerm;43999;51.660;5.616;2023-07-22T13:49:33;49.74;48.49;51.21;;
58197;Laerm;43999;51.660;5.616;2023-07-22T13:52:00;49.75;48.57;51.64;;
58197;Laerm;43999;51.660;5.616;2023-07-22T13:54:28;49.76;48.48;51.31;;
58197;Laerm;43999;51.660;5.616;2023-07-22T13:56:55;49.76;48.46;51.67;;
58197;Laerm;43999;51.660;5.616;2023-07-22T13:59:22;49.76;48.57;51.50;;
58197;Laerm;43999;51.660;5.616;2023-07-22T14:01:50;49.78;48.55;51.53;;
58197;Laerm;43999;51.660;5.616;2023-07-22T14:04:18;49.76;48.31;51.27;;
58197;Laerm;43999;51.660;5.616;2023-07-22T14:06:46;49.77;48.49;51.56;;